KUNI

Details ICAO KUNI
Name Ohio University Snyder Field
Region United States
Timezone America/New_York (UTC-5.0)
Plans Departing 12
Arriving 10
Stats Elevation 766 ft / 233 m (AMSL)
Location 39.211900° -82.229300°
Runways 1
Magnetic Variation 7.562° W
Sunrise 2018-12-09 12:38:08 UTC / 2018-12-09 07:38:08 Local
Sunset 2018-12-09 22:07:19 UTC / 2018-12-09 17:07:19 Local
Advertisement - Login to hide

Runways

ID Width Length Bearing (true/mag) Surface Threshold Overrun Markings Lighting
07 98 ft / 30 m 5,593 ft / 1,705 m 60.60° / 68.17° ASPHALT 899 ft / 274 m 0 ft / 0 m PREC-APP EDGE THRESHOLD REIL-OMNI
25 98 ft / 30 m 5,593 ft / 1,705 m 240.62° / 248.18° ASPHALT 0 ft / 0 m 0 ft / 0 m PREC-APP EDGE THRESHOLD REIL-OMNI

Approach Navaids

Runway Type Ident Frequency Range Bearing (true/mag) Slope Elevation
25 GS IUNI 108.75 MHz 10 nm / 19 km 241.22° / 248.78° 3.00° 757 ft / 231 m (AMSL)
25 LOC-ILS IUNI 108.75 MHz 18 nm / 33 km 240.60° / 248.16° - 761 ft / 232 m (AMSL)

Map

Weather


0- 5 10 15 20 25 30 35+ Temperature / °C

Clouds and Precipitation
Forecast for 2018-12-10 00:00 UTC. Updated 2 hours ago

Ground ~20,000 ft ~40,000 ft Winds

METAR

KUNI 092255Z AUTO 02003KT 10SM CLR M01/M05 A3020 RMK AO2 T10091053

TAF

Not found

Frequencies

Unicom 123.07 MHz CTAF/UNICOM
Recorded 128.32 MHz AWOS 3
Clearance 120.95 MHz CLNC DEL
Approach 120.95 MHz HUNTINGTON APP/DEP
Warning: Do not use this data for real-world aviation or navigation. No guarantee of current accuracy is given.